| time (UTC) | temp F | wind direction | speed knots | gust knots | rain 1hr in | rain 24hr in | rain mn in | humidity % | barometer mb |
| 20260502160231 | 44 | 341 | 2.6 | 4.3 | 0.00 | 0.00 | 0.00 | 52 | 1018.1 |
| 20260502152155 | 42 | 348 | 3.5 | 8.7 | 0.00 | 0.00 | 0.00 | 53 | 1018.1 |
| 20260502151652 | 44 | 346 | 4.3 | 8.7 | 0.00 | 0.00 | 0.00 | 52 | 1018.0 |
| 20260502151150 | 41 | 14 | 2.6 | 7.0 | 0.00 | 0.00 | 0.00 | 52 | 1018.1 |
| 20260502150647 | 43 | 355 | 7.0 | 12.2 | 0.00 | 0.00 | 0.00 | 52 | 1018.3 |
| 20260502150143 | 42 | 325 | 2.6 | 4.3 | 0.00 | 0.00 | 0.00 | 54 | 1018.2 |
| 20260502140107 | 40 | 318 | 2.6 | 5.2 | 0.00 | 0.00 | 0.00 | 63 | 1018.1 |
| 20260502130532 | 38 | 0 | 0.0 | 4.3 | 0.00 | 0.00 | 0.00 | 71 | 1018.3 |
| 20260502123515 | 37 | 13 | 3.5 | 6.1 | 0.00 | 0.00 | 0.00 | 74 | 1018.2 |
| 20260502123011 | 37 | 30 | 1.7 | 5.2 | 0.00 | 0.00 | 0.00 | 75 | 1018.2 |
| 20260502122508 | 37 | 22 | 4.3 | 7.8 | 0.00 | 0.00 | 0.00 | 75 | 1018.2 |
| 20260502122005 | 37 | 8 | 2.6 | 6.1 | 0.00 | 0.00 | 0.00 | 75 | 1018.3 |
| 20260502121503 | 37 | 2 | 5.2 | 11.3 | 0.00 | 0.00 | 0.00 | 76 | 1018.3 |
| 20260502121000 | 36 | 337 | 4.3 | 13.9 | 0.00 | 0.00 | 0.00 | 77 | 1018.2 |
| 20260502120456 | 35 | 22 | 3.5 | 7.8 | 0.00 | 0.00 | 0.00 | 78 | 1018.1 |
| 20260502115451 | 36 | 33 | 3.5 | 4.3 | 0.00 | 0.00 | 0.00 | 79 | 1018.1 |
| 20260502114947 | 35 | 337 | 2.6 | 4.3 | 0.00 | 0.00 | 0.00 | 79 | 1018.1 |
| 20260502114444 | 35 | 73 | 2.6 | 5.2 | 0.00 | 0.00 | 0.00 | 79 | 1018.2 |
| 20260502113941 | 35 | 32 | 4.3 | 7.0 | 0.00 | 0.00 | 0.00 | 80 | 1018.2 |
| 20260502113438 | 35 | 354 | 2.6 | 4.3 | 0.00 | 0.00 | 0.00 | 80 | 1017.9 |
| 20260502112937 | 34 | 338 | 2.6 | 3.5 | 0.00 | 0.00 | 0.00 | 82 | 1017.9 |
| 20260502112434 | 34 | 4 | 0.9 | 4.3 | 0.00 | 0.00 | 0.00 | 82 | 1018.0 |
| 20260502111931 | 34 | 0 | 1.7 | 4.3 | 0.00 | 0.00 | 0.00 | 82 | 1017.8 |
| 20260502111428 | 34 | 37 | 1.7 | 2.6 | 0.00 | 0.00 | 0.00 | 83 | 1017.7 |
| 20260502110926 | 34 | 62 | 3.5 | 3.5 | 0.00 | 0.00 | 0.00 | 83 | 1017.9 |
| 20260502110423 | 33 | 332 | 1.7 | 3.5 | 0.00 | 0.00 | 0.00 | 84 | 1017.8 |
| 20260502105920 | 33 | 320 | 0.0 | 2.6 | 0.00 | 0.00 | 0.00 | 85 | 1017.8 |
| 20260502105417 | 33 | 307 | 4.3 | 5.2 | 0.00 | 0.00 | 0.00 | 88 | 1017.7 |
| 20260502104916 | 33 | 97 | 1.7 | 2.6 | 0.00 | 0.00 | 0.00 | 90 | 1017.7 |
| 20260502104412 | 32 | 123 | 2.6 | 2.6 | 0.00 | 0.00 | 0.00 | 91 | 1017.6 |
| 20260502103910 | 32 | 55 | 0.0 | 1.7 | 0.00 | 0.00 | 0.00 | 92 | 1017.7 |
| 20260502103408 | 32 | 53 | 1.7 | 2.6 | 0.00 | 0.00 | 0.00 | 93 | 1017.7 |
| 20260502102904 | 32 | 93 | 0.9 | 2.6 | 0.00 | 0.00 | 0.00 | 93 | 1017.6 |
| 20260502102401 | 32 | 62 | 0.0 | 2.6 | 0.00 | 0.00 | 0.00 | 93 | 1017.6 |
| 20260502101858 | 32 | 82 | 0.9 | 1.7 | 0.00 | 0.00 | 0.00 | 93 | 1017.6 |
| 20260502101356 | 33 | 80 | 0.9 | 1.7 | 0.00 | 0.00 | 0.00 | 93 | 1017.7 |
| 20260502100854 | 33 | 71 | 1.7 | 2.6 | 0.00 | 0.00 | 0.00 | 93 | 1017.4 |
| 20260502100353 | 33 | 95 | 0.0 | 1.7 | 0.00 | 0.00 | 0.00 | 93 | 1017.5 |
| 20260502091327 | 33 | 82 | 0.9 | 2.6 | 0.00 | 0.00 | 0.00 | 92 | 1017.0 |
| 20260502090825 | 33 | 98 | 0.9 | 1.7 | 0.00 | 0.00 | 0.00 | 92 | 1017.1 |
| 20260502090321 | 33 | 104 | 1.7 | 1.7 | 0.00 | 0.00 | 0.00 | 91 | 1016.9 |
| 20260502071216 | 37 | 78 | 0.9 | 1.7 | 0.00 | 0.00 | 0.00 | 84 | 1016.7 |
| 20260502070715 | 38 | 52 | 0.9 | 2.6 | 0.00 | 0.00 | 0.00 | 84 | 1016.6 |
| 20260502070212 | 38 | 50 | 1.7 | 2.6 | 0.00 | 0.00 | 0.00 | 83 | 1016.6 |
| 20260502065710 | 38 | 66 | 1.7 | 1.7 | 0.00 | 0.00 | 0.00 | 83 | 1016.8 |
| 20260502065208 | 38 | 85 | 1.7 | 2.6 | 0.00 | 0.00 | 0.00 | 82 | 1016.6 |
| 20260502064706 | 38 | 61 | 1.7 | 2.6 | 0.00 | 0.00 | 0.00 | 82 | 1016.8 |
| 20260502064203 | 38 | 57 | 2.6 | 2.6 | 0.00 | 0.00 | 0.00 | 82 | 1016.8 |
| 20260502063701 | 38 | 54 | 1.7 | 2.6 | 0.00 | 0.00 | 0.00 | 81 | 1016.8 |
| 20260502063158 | 38 | 97 | 1.7 | 2.6 | 0.00 | 0.00 | 0.00 | 80 | 1017.0 |
| 20260502062655 | 38 | 84 | 2.6 | 2.6 | 0.00 | 0.00 | 0.00 | 80 | 1016.9 |
| 20260502062153 | 39 | 92 | 2.6 | 3.5 | 0.00 | 0.00 | 0.00 | 79 | 1017.0 |
| 20260502061651 | 39 | 50 | 2.6 | 2.6 | 0.00 | 0.00 | 0.00 | 77 | 1016.8 |
| 20260502061148 | 39 | 48 | 3.5 | 4.3 | 0.00 | 0.00 | 0.00 | 75 | 1017.1 |
| 20260502060648 | 39 | 49 | 1.7 | 2.6 | 0.00 | 0.00 | 0.00 | 72 | 1016.9 |
| 20260502060145 | 39 | 61 | 1.7 | 2.6 | 0.00 | 0.00 | 0.00 | 72 | 1017.1 |
| 20260502055643 | 39 | 53 | 1.7 | 2.6 | 0.00 | 0.00 | 0.00 | 71 | 1017.1 |
| 20260502055141 | 39 | 63 | 1.7 | 1.7 | 0.00 | 0.00 | 0.00 | 71 | 1017.1 |
| 20260502054640 | 39 | 46 | 1.7 | 2.6 | 0.00 | 0.00 | 0.00 | 69 | 1017.1 |
| 20260502054137 | 39 | 80 | 1.7 | 3.5 | 0.00 | 0.00 | 0.00 | 70 | 1017.0 |
| 20260502053634 | 39 | 35 | 1.7 | 2.6 | 0.00 | 0.00 | 0.00 | 69 | 1017.1 |
| 20260502053131 | 39 | 51 | 1.7 | 2.6 | 0.00 | 0.00 | 0.00 | 68 | 1017.1 |
| 20260502052629 | 39 | 48 | 1.7 | 3.5 | 0.00 | 0.00 | 0.00 | 66 | 1017.1 |
| 20260502052127 | 39 | 39 | 2.6 | 4.3 | 0.00 | 0.00 | 0.00 | 66 | 1017.0 |
| 20260502051625 | 39 | 17 | 2.6 | 5.2 | 0.00 | 0.00 | 0.00 | 65 | 1017.0 |
| 20260502051123 | 40 | 46 | 1.7 | 3.5 | 0.00 | 0.00 | 0.00 | 64 | 1017.0 |
| 20260502050619 | 39 | 332 | 2.6 | 6.1 | 0.00 | 0.00 | 0.00 | 62 | 1016.8 |
| 20260502050116 | 39 | 26 | 0.9 | 1.7 | 0.00 | 0.00 | 0.00 | 63 | 1016.7 |
| 20260502045612 | 40 | 314 | 2.6 | 4.3 | 0.00 | 0.00 | 0.00 | 61 | 1016.7 |
| 20260502045109 | 40 | 54 | 2.6 | 6.1 | 0.00 | 0.00 | 0.00 | 62 | 1016.8 |
| 20260502044606 | 40 | 32 | 1.7 | 6.1 | 0.00 | 0.00 | 0.00 | 62 | 1016.6 |
| 20260502044103 | 40 | 11 | 2.6 | 3.5 | 0.00 | 0.00 | 0.00 | 62 | 1016.8 |
| 20260502043600 | 40 | 70 | 1.7 | 3.5 | 0.00 | 0.00 | 0.00 | 62 | 1016.7 |
| 20260502043057 | 40 | 2 | 0.9 | 4.3 | 0.00 | 0.00 | 0.00 | 61 | 1016.6 |
| 20260502042551 | 40 | 33 | 2.6 | 6.1 | 0.00 | 0.00 | 0.00 | 62 | 1016.6 |
| 20260502042049 | 40 | 40 | 3.5 | 4.3 | 0.00 | 0.00 | 0.00 | 62 | 1016.5 |
| 20260502041546 | 40 | 12 | 2.6 | 7.0 | 0.00 | 0.00 | 0.00 | 62 | 1016.7 |
| 20260502041043 | 40 | 56 | 3.5 | 6.1 | 0.00 | 0.00 | 0.00 | 62 | 1016.6 |
| 20260502040540 | 40 | 63 | 1.7 | 4.3 | 0.00 | 0.00 | 0.00 | 62 | 1016.6 |
| 20260502040037 | 40 | 30 | 4.3 | 4.3 | 0.00 | 0.00 | 0.00 | 64 | 1016.5 |
| 20260502035532 | 40 | 38 | 2.6 | 9.6 | 0.00 | 0.00 | 0.00 | 63 | 1016.6 |
| 20260502035031 | 40 | 334 | 1.7 | 9.6 | 0.00 | 0.00 | 0.00 | 62 | 1016.6 |
| 20260502034528 | 40 | 47 | 2.6 | 7.0 | 0.00 | 0.00 | 0.00 | 63 | 1016.5 |
| 20260502034027 | 40 | 328 | 2.6 | 9.6 | 0.00 | 0.00 | 0.00 | 65 | 1016.5 |
| 20260502033524 | 40 | 62 | 1.7 | 4.3 | 0.00 | 0.00 | 0.00 | 65 | 1016.4 |
| 20260502033022 | 41 | 27 | 1.7 | 2.6 | 0.00 | 0.00 | 0.00 | 65 | 1016.3 |
| 20260502032517 | 41 | 0 | 2.6 | 4.3 | 0.00 | 0.00 | 0.00 | 65 | 1016.5 |
| 20260502032014 | 41 | 37 | 1.7 | 7.0 | 0.00 | 0.00 | 0.00 | 64 | 1016.5 |
| 20260502031512 | 41 | 48 | 3.5 | 5.2 | 0.00 | 0.00 | 0.00 | 63 | 1016.3 |
| 20260502031010 | 41 | 47 | 2.6 | 4.3 | 0.00 | 0.00 | 0.00 | 64 | 1016.4 |
| 20260502030508 | 41 | 352 | 1.7 | 3.5 | 0.00 | 0.00 | 0.00 | 64 | 1016.4 |
| 20260502030006 | 41 | 4 | 1.7 | 1.7 | 0.00 | 0.00 | 0.00 | 65 | 1016.5 |
| 20260502025503 | 41 | 30 | 1.7 | 4.3 | 0.00 | 0.00 | 0.00 | 65 | 1016.5 |
| 20260502025001 | 41 | 46 | 3.5 | 7.0 | 0.00 | 0.00 | 0.00 | 64 | 1016.5 |
| 20260502024458 | 41 | 325 | 2.6 | 3.5 | 0.00 | 0.00 | 0.00 | 64 | 1016.4 |
| 20260502023956 | 41 | 34 | 2.6 | 7.0 | 0.00 | 0.00 | 0.00 | 66 | 1016.3 |
| 20260502023453 | 41 | 46 | 3.5 | 6.1 | 0.00 | 0.00 | 0.00 | 66 | 1016.4 |
| 20260502022951 | 41 | 322 | 4.3 | 6.1 | 0.00 | 0.00 | 0.00 | 64 | 1016.5 |
| 20260502022447 | 41 | 48 | 3.5 | 5.2 | 0.00 | 0.00 | 0.00 | 64 | 1016.3 |
| 20260502021944 | 41 | 333 | 3.5 | 7.8 | 0.00 | 0.00 | 0.00 | 63 | 1016.4 |
| 20260502021442 | 41 | 330 | 3.5 | 8.7 | 0.00 | 0.00 | 0.00 | 63 | 1016.2 |
| 20260502020938 | 41 | 352 | 3.5 | 8.7 | 0.00 | 0.00 | 0.00 | 63 | 1016.2 |
| 20260502020437 | 42 | 30 | 3.5 | 10.4 | 0.00 | 0.00 | 0.00 | 64 | 1016.1 |
| 20260502015933 | 42 | 9 | 3.5 | 5.2 | 0.00 | 0.00 | 0.00 | 63 | 1016.2 |
| 20260502015431 | 42 | 356 | 3.5 | 7.8 | 0.00 | 0.00 | 0.00 | 61 | 1016.1 |
| 20260502014927 | 42 | 246 | 0.0 | 3.5 | 0.00 | 0.00 | 0.00 | 61 | 1015.9 |
| 20260502014424 | 42 | 127 | 1.7 | 3.5 | 0.00 | 0.00 | 0.00 | 62 | 1016.0 |
| 20260502013921 | 42 | 33 | 1.7 | 3.5 | 0.00 | 0.00 | 0.00 | 61 | 1015.9 |
| 20260502013416 | 42 | 325 | 1.7 | 2.6 | 0.00 | 0.00 | 0.00 | 63 | 1015.7 |
| 20260502012913 | 42 | 51 | 0.0 | 3.5 | 0.00 | 0.00 | 0.00 | 62 | 1015.6 |
| 20260502012411 | 43 | 31 | 0.9 | 4.3 | 0.00 | 0.00 | 0.00 | 62 | 1015.8 |
| 20260502011908 | 43 | 4 | 2.6 | 2.6 | 0.00 | 0.00 | 0.00 | 62 | 1015.6 |
| 20260502011404 | 43 | 102 | 3.5 | 6.1 | 0.00 | 0.00 | 0.00 | 61 | 1015.7 |
| 20260502010901 | 43 | 155 | 0.0 | 1.7 | 0.00 | 0.00 | 0.00 | 63 | 1015.4 |
| 20260502010358 | 42 | 85 | 2.6 | 4.3 | 0.00 | 0.00 | 0.00 | 62 | 1015.5 |
| 20260502005854 | 43 | 84 | 0.9 | 2.6 | 0.00 | 0.00 | 0.00 | 63 | 1015.7 |
| 20260502005352 | 43 | 14 | 1.7 | 3.5 | 0.00 | 0.00 | 0.00 | 62 | 1015.6 |
| 20260502004850 | 43 | 317 | 1.7 | 5.2 | 0.00 | 0.00 | 0.00 | 61 | 1015.5 |
| 20260502004345 | 43 | 153 | 2.6 | 4.3 | 0.00 | 0.00 | 0.00 | 62 | 1015.5 |
| 20260502003843 | 43 | 73 | 0.0 | 4.3 | 0.00 | 0.00 | 0.00 | 61 | 1015.4 |
| 20260502003340 | 43 | 359 | 3.5 | 4.3 | 0.00 | 0.00 | 0.00 | 61 | 1015.5 |
| 20260502002836 | 43 | 175 | 0.0 | 2.6 | 0.00 | 0.00 | 0.00 | 63 | 1015.5 |
| 20260502002334 | 43 | 295 | 1.7 | 4.3 | 0.00 | 0.00 | 0.00 | 62 | 1015.3 |
| 20260502001831 | 43 | 309 | 0.9 | 6.1 | 0.00 | 0.00 | 0.00 | 62 | 1015.4 |
| 20260502001329 | 43 | 331 | 0.0 | 5.2 | 0.00 | 0.00 | 0.00 | 62 | 1015.4 |
| 20260502000826 | 43 | 8 | 1.7 | 3.5 | 0.00 | 0.00 | 0.00 | 62 | 1015.1 |
| 20260502000325 | 44 | 320 | 0.0 | 5.2 | 0.00 | 0.00 | 0.00 | 61 | 1015.1 |
| 20260501235820 | 44 | 54 | 1.7 | 3.5 | 0.00 | 0.00 | 0.00 | 61 | 1015.1 |
| 20260501235316 | 44 | 43 | 3.5 | 3.5 | 0.00 | 0.00 | 0.00 | 61 | 1015.1 |
| 20260501234811 | 44 | 0 | 2.6 | 4.3 | 0.00 | 0.00 | 0.00 | 62 | 1015.1 |
| 20260501234309 | 44 | 61 | 0.0 | 3.5 | 0.00 | 0.00 | 0.00 | 61 | 1015.3 |
| 20260501233807 | 44 | 100 | 1.7 | 4.3 | 0.00 | 0.00 | 0.00 | 60 | 1015.1 |
| 20260501233304 | 44 | 2 | 2.6 | 2.6 | 0.00 | 0.00 | 0.00 | 61 | 1015.1 |
| 20260501232759 | 44 | 105 | 0.9 | 4.3 | 0.00 | 0.00 | 0.00 | 61 | 1015.1 |
| 20260501232257 | 44 | 331 | 1.7 | 2.6 | 0.00 | 0.00 | 0.00 | 61 | 1015.0 |
| 20260501231754 | 44 | 33 | 3.5 | 5.2 | 0.00 | 0.00 | 0.00 | 61 | 1015.0 |
| 20260501231253 | 44 | 62 | 2.6 | 3.5 | 0.00 | 0.00 | 0.00 | 63 | 1015.0 |
| 20260501230750 | 44 | 49 | 2.6 | 4.3 | 0.00 | 0.00 | 0.00 | 60 | 1015.1 |
| 20260501230249 | 44 | 351 | 3.5 | 3.5 | 0.00 | 0.00 | 0.00 | 61 | 1015.0 |
| 20260501225746 | 44 | 321 | 2.6 | 5.2 | 0.00 | 0.00 | 0.00 | 60 | 1015.3 |
| 20260501225243 | 44 | 312 | 0.9 | 4.3 | 0.00 | 0.00 | 0.00 | 59 | 1015.2 |
| 20260501224739 | 44 | 70 | 3.5 | 6.1 | 0.00 | 0.00 | 0.00 | 60 | 1015.1 |
| 20260501224237 | 45 | 112 | 2.6 | 8.7 | 0.00 | 0.00 | 0.00 | 61 | 1015.1 |
| 20260501223733 | 45 | 320 | 3.5 | 4.3 | 0.00 | 0.00 | 0.00 | 60 | 1015.0 |
| 20260501223229 | 45 | 15 | 3.5 | 3.5 | 0.00 | 0.00 | 0.00 | 61 | 1015.1 |
| 20260501222725 | 45 | 18 | 1.7 | 3.5 | 0.00 | 0.00 | 0.00 | 60 | 1015.0 |
| 20260501222223 | 45 | 170 | 0.0 | 7.0 | 0.00 | 0.00 | 0.00 | 60 | 1014.7 |
| 20260501221720 | 44 | 9 | 3.5 | 9.6 | 0.00 | 0.00 | 0.00 | 60 | 1014.9 |
| 20260501221217 | 45 | 220 | 6.1 | 6.1 | 0.00 | 0.00 | 0.00 | 59 | 1015.0 |
| 20260501220714 | 45 | 141 | 1.7 | 3.5 | 0.00 | 0.00 | 0.00 | 59 | 1015.0 |
| 20260501220212 | 45 | 153 | 2.6 | 5.2 | 0.00 | 0.00 | 0.00 | 60 | 1014.8 |
| 20260501215709 | 44 | 0 | 2.6 | 8.7 | 0.00 | 0.00 | 0.00 | 58 | 1014.7 |
| 20260501215204 | 45 | 333 | 5.2 | 12.2 | 0.00 | 0.00 | 0.00 | 57 | 1014.6 |
| 20260501214659 | 45 | 41 | 1.7 | 3.5 | 0.00 | 0.00 | 0.00 | 61 | 1014.8 |
| 20260501214155 | 45 | 194 | 0.0 | 7.0 | 0.00 | 0.00 | 0.00 | 60 | 1014.8 |
| 20260501213652 | 45 | 41 | 0.0 | 6.1 | 0.00 | 0.00 | 0.00 | 61 | 1014.7 |
| 20260501213147 | 45 | 30 | 1.7 | 4.3 | 0.00 | 0.00 | 0.00 | 60 | 1014.6 |
| 20260501212644 | 45 | 3 | 3.5 | 8.7 | 0.00 | 0.00 | 0.00 | 60 | 1014.7 |
| 20260501212141 | 45 | 322 | 4.3 | 10.4 | 0.00 | 0.00 | 0.00 | 61 | 1014.5 |
| 20260501211638 | 46 | 108 | 2.6 | 4.3 | 0.00 | 0.00 | 0.00 | 59 | 1014.6 |
| 20260501211135 | 46 | 342 | 3.5 | 5.2 | 0.00 | 0.00 | 0.00 | 61 | 1014.6 |
| 20260501210632 | 46 | 334 | 0.0 | 7.0 | 0.00 | 0.00 | 0.00 | 62 | 1014.7 |
| 20260501210129 | 46 | 12 | 3.5 | 6.1 | 0.00 | 0.00 | 0.00 | 58 | 1014.4 |
| 20260501205625 | 46 | 326 | 3.5 | 8.7 | 0.00 | 0.00 | 0.00 | 58 | 1014.5 |
| 20260501205123 | 46 | 326 | 4.3 | 6.1 | 0.00 | 0.00 | 0.00 | 56 | 1014.3 |
| 20260501204619 | 46 | 351 | 4.3 | 10.4 | 0.00 | 0.00 | 0.00 | 56 | 1014.2 |
| 20260501204115 | 46 | 358 | 2.6 | 9.6 | 0.00 | 0.00 | 0.00 | 56 | 1014.3 |
| 20260501203612 | 46 | 9 | 2.6 | 10.4 | 0.00 | 0.00 | 0.00 | 60 | 1014.3 |
| 20260501203109 | 46 | 30 | 1.7 | 7.8 | 0.00 | 0.00 | 0.00 | 59 | 1014.2 |
| 20260501202607 | 46 | 76 | 1.7 | 6.1 | 0.00 | 0.00 | 0.00 | 59 | 1014.2 |
| 20260501202103 | 47 | 0 | 1.7 | 4.3 | 0.00 | 0.00 | 0.00 | 57 | 1014.3 |
| 20260501201600 | 46 | 83 | 1.7 | 4.3 | 0.00 | 0.00 | 0.00 | 57 | 1014.3 |
| 20260501201056 | 47 | 337 | 1.7 | 3.5 | 0.00 | 0.00 | 0.00 | 58 | 1014.4 |
| 20260501200554 | 46 | 10 | 1.7 | 7.0 | 0.00 | 0.00 | 0.00 | 58 | 1014.3 |
| 20260501200051 | 47 | 0 | 3.5 | 7.0 | 0.00 | 0.00 | 0.00 | 59 | 1014.2 |
| 20260501195548 | 46 | 38 | 1.7 | 5.2 | 0.00 | 0.00 | 0.00 | 57 | 1014.1 |
| 20260501195044 | 46 | 101 | 0.9 | 6.1 | 0.00 | 0.00 | 0.00 | 57 | 1014.3 |
| 20260501194539 | 46 | 35 | 3.5 | 7.8 | 0.00 | 0.00 | 0.00 | 56 | 1014.3 |
| 20260501194035 | 46 | 337 | 3.5 | 4.3 | 0.00 | 0.00 | 0.00 | 56 | 1014.2 |
| 20260501193533 | 47 | 316 | 4.3 | 8.7 | 0.00 | 0.00 | 0.00 | 58 | 1014.1 |
| 20260501193031 | 47 | 3 | 2.6 | 9.6 | 0.00 | 0.00 | 0.00 | 55 | 1014.2 |
| 20260501192528 | 48 | 302 | 0.9 | 9.6 | 0.00 | 0.00 | 0.00 | 59 | 1014.2 |
| 20260501192026 | 47 | 330 | 4.3 | 5.2 | 0.00 | 0.00 | 0.00 | 58 | 1014.1 |
| 20260501191522 | 46 | 352 | 2.6 | 6.1 | 0.00 | 0.00 | 0.00 | 59 | 1014.2 |
| 20260501191020 | 46 | 358 | 1.7 | 7.0 | 0.00 | 0.00 | 0.00 | 57 | 1014.2 |
| 20260501190515 | 46 | 315 | 2.6 | 7.0 | 0.00 | 0.00 | 0.00 | 58 | 1013.9 |
| 20260501190012 | 47 | 334 | 6.1 | 7.8 | 0.00 | 0.00 | 0.00 | 56 | 1014.0 |
| 20260501185507 | 47 | 22 | 3.5 | 8.7 | 0.00 | 0.00 | 0.00 | 56 | 1013.9 |
| 20260501185003 | 47 | 34 | 5.2 | 6.1 | 0.00 | 0.00 | 0.00 | 58 | 1014.1 |
| 20260501184500 | 48 | 318 | 5.2 | 7.8 | 0.00 | 0.00 | 0.00 | 58 | 1014.0 |
| 20260501183954 | 47 | 46 | 2.6 | 6.1 | 0.00 | 0.00 | 0.00 | 58 | 1013.9 |
| 20260501183452 | 46 | 29 | 3.5 | 7.8 | 0.00 | 0.00 | 0.00 | 57 | 1014.0 |
| 20260501182948 | 47 | 338 | 1.7 | 5.2 | 0.00 | 0.00 | 0.00 | 58 | 1013.7 |
| 20260501182445 | 46 | 317 | 4.3 | 8.7 | 0.00 | 0.00 | 0.00 | 56 | 1013.9 |
| 20260501181941 | 47 | 339 | 1.7 | 6.1 | 0.00 | 0.00 | 0.00 | 61 | 1013.7 |
| 20260501181439 | 47 | 312 | 6.1 | 9.6 | 0.00 | 0.00 | 0.00 | 60 | 1013.8 |
| 20260501180935 | 48 | 50 | 2.6 | 7.0 | 0.00 | 0.00 | 0.00 | 62 | 1013.7 |
| 20260501180427 | 46 | 354 | 1.7 | 6.1 | 0.00 | 0.00 | 0.00 | 64 | 1013.8 |
| 20260501175924 | 46 | 347 | 4.3 | 7.8 | 0.00 | 0.00 | 0.00 | 63 | 1013.8 |
| 20260501175421 | 45 | 48 | 3.5 | 4.3 | 0.00 | 0.00 | 0.00 | 64 | 1013.6 |
| 20260501174917 | 45 | 27 | 5.2 | 7.0 | 0.00 | 0.00 | 0.00 | 63 | 1013.8 |
| 20260501174415 | 45 | 41 | 2.6 | 7.0 | 0.00 | 0.00 | 0.00 | 65 | 1014.0 |
| 20260501173912 | 45 | 63 | 2.6 | 4.3 | 0.00 | 0.00 | 0.00 | 66 | 1013.8 |
| 20260501173410 | 45 | 15 | 3.5 | 4.3 | 0.00 | 0.00 | 0.00 | 66 | 1013.9 |
| 20260501172905 | 46 | 29 | 4.3 | 7.0 | 0.00 | 0.00 | 0.00 | 64 | 1013.8 |
| 20260501172401 | 46 | 334 | 3.5 | 5.2 | 0.00 | 0.00 | 0.00 | 62 | 1013.8 |
| 20260501171856 | 47 | 42 | 6.1 | 7.8 | 0.00 | 0.00 | 0.00 | 63 | 1013.8 |
| 20260501171353 | 48 | 297 | 1.7 | 5.2 | 0.00 | 0.00 | 0.00 | 64 | 1014.0 |
| 20260501170850 | 46 | 356 | 2.6 | 7.0 | 0.00 | 0.00 | 0.00 | 61 | 1013.9 |
| 20260501170347 | 46 | 307 | 0.9 | 6.1 | 0.00 | 0.00 | 0.00 | 64 | 1013.8 |
| 20260501165845 | 46 | 355 | 3.5 | 7.8 | 0.00 | 0.00 | 0.00 | 62 | 1014.0 |
| 20260501165342 | 47 | 258 | 0.9 | 6.1 | 0.00 | 0.00 | 0.00 | 60 | 1013.9 |
| 20260501164840 | 46 | 35 | 3.5 | 6.1 | 0.00 | 0.00 | 0.00 | 59 | 1013.9 |
| 20260501164337 | 47 | 309 | 6.1 | 8.7 | 0.00 | 0.00 | 0.00 | 57 | 1013.8 |
| 20260501163833 | 47 | 12 | 5.2 | 7.0 | 0.00 | 0.00 | 0.00 | 57 | 1014.0 |
| 20260501163330 | 47 | 326 | 5.2 | 7.0 | 0.00 | 0.00 | 0.00 | 57 | 1013.8 |
| 20260501162827 | 47 | 322 | 3.5 | 7.0 | 0.00 | 0.00 | 0.00 | 59 | 1013.9 |
| 20260501162323 | 47 | 7 | 8.7 | 8.7 | 0.00 | 0.00 | 0.00 | 58 | 1013.8 |
| 20260501161820 | 46 | 130 | 0.9 | 4.3 | 0.00 | 0.00 | 0.00 | 59 | 1014.0 |
| 20260501161317 | 46 | 36 | 3.5 | 4.3 | 0.00 | 0.00 | 0.00 | 60 | 1013.9 |
| 20260501160814 | 46 | 269 | 0.0 | 3.5 | 0.00 | 0.00 | 0.00 | 59 | 1014.1 |